sensor_id;sensor_type;location;lat;lon;timestamp;pressure;altitude;pressure_sealevel;temperature;humidity
7180;BME280;3631;42.152;24.756;2023-01-31T00:01:07;98889.09;;;3.98;80.10
7180;BME280;3631;42.152;24.756;2023-01-31T00:03:36;98892.50;;;3.97;78.95
7180;BME280;3631;42.152;24.756;2023-01-31T00:06:26;98894.16;;;4.04;78.09
7180;BME280;3631;42.152;24.756;2023-01-31T00:08:54;98897.44;;;4.15;77.74
7180;BME280;3631;42.152;24.756;2023-01-31T00:11:23;98900.78;;;4.19;77.60
7180;BME280;3631;42.152;24.756;2023-01-31T00:13:51;98900.72;;;4.26;77.61
7180;BME280;3631;42.152;24.756;2023-01-31T00:16:19;98906.56;;;4.37;77.09
7180;BME280;3631;42.152;24.756;2023-01-31T00:18:47;98869.88;;;4.26;77.59
7180;BME280;3631;42.152;24.756;2023-01-31T00:21:15;98899.56;;;4.47;77.55
7180;BME280;3631;42.152;24.756;2023-01-31T00:23:45;98875.78;;;4.31;77.01
7180;BME280;3631;42.152;24.756;2023-01-31T00:26:13;98910.72;;;4.46;77.74
7180;BME280;3631;42.152;24.756;2023-01-31T00:28:41;98892.78;;;4.42;77.29
7180;BME280;3631;42.152;24.756;2023-01-31T00:31:09;98896.91;;;4.52;77.04
7180;BME280;3631;42.152;24.756;2023-01-31T00:33:38;98894.31;;;4.53;77.49
7180;BME280;3631;42.152;24.756;2023-01-31T00:36:07;98866.28;;;4.40;77.49
7180;BME280;3631;42.152;24.756;2023-01-31T00:38:34;98898.56;;;4.56;76.88
7180;BME280;3631;42.152;24.756;2023-01-31T00:41:03;98890.00;;;4.55;77.45
7180;BME280;3631;42.152;24.756;2023-01-31T00:43:31;98893.53;;;4.50;78.35
7180;BME280;3631;42.152;24.756;2023-01-31T00:45:58;98888.31;;;4.54;77.84
7180;BME280;3631;42.152;24.756;2023-01-31T00:48:26;98881.41;;;4.58;77.32
7180;BME280;3631;42.152;24.756;2023-01-31T00:50:53;98878.91;;;4.52;77.51
7180;BME280;3631;42.152;24.756;2023-01-31T00:53:20;98878.88;;;4.55;77.66
7180;BME280;3631;42.152;24.756;2023-01-31T00:55:48;98856.84;;;4.40;77.85
7180;BME280;3631;42.152;24.756;2023-01-31T00:58:17;98887.56;;;4.49;77.92
7180;BME280;3631;42.152;24.756;2023-01-31T01:00:45;98892.75;;;4.45;78.03
7180;BME280;3631;42.152;24.756;2023-01-31T01:03:12;98888.44;;;4.47;78.21
7180;BME280;3631;42.152;24.756;2023-01-31T01:05:39;98894.31;;;4.53;78.11
7180;BME280;3631;42.152;24.756;2023-01-31T01:08:06;98895.16;;;4.55;77.83
7180;BME280;3631;42.152;24.756;2023-01-31T01:10:34;98898.44;;;4.63;77.68
7180;BME280;3631;42.152;24.756;2023-01-31T01:13:01;98906.13;;;4.66;77.64
7180;BME280;3631;42.152;24.756;2023-01-31T01:15:31;98894.06;;;4.73;77.56
7180;BME280;3631;42.152;24.756;2023-01-31T01:17:58;98889.81;;;4.69;77.92
7180;BME280;3631;42.152;24.756;2023-01-31T01:20:25;98893.22;;;4.71;77.68
7180;BME280;3631;42.152;24.756;2023-01-31T01:22:52;98884.56;;;4.77;77.91
7180;BME280;3631;42.152;24.756;2023-01-31T01:25:19;98891.47;;;4.73;78.12
7180;BME280;3631;42.152;24.756;2023-01-31T01:27:46;98892.25;;;4.77;78.05
7180;BME280;3631;42.152;24.756;2023-01-31T01:30:13;98879.44;;;4.75;78.46
7180;BME280;3631;42.152;24.756;2023-01-31T01:32:41;98894.63;;;4.90;78.66
7180;BME280;3631;42.152;24.756;2023-01-31T01:35:08;98896.44;;;4.85;79.33
7180;BME280;3631;42.152;24.756;2023-01-31T01:37:35;98892.16;;;4.84;79.51
7180;BME280;3631;42.152;24.756;2023-01-31T01:40:03;98893.81;;;4.87;80.24
7180;BME280;3631;42.152;24.756;2023-01-31T01:42:33;98888.75;;;4.82;81.14
7180;BME280;3631;42.152;24.756;2023-01-31T01:45:01;98883.56;;;4.85;81.52
7180;BME280;3631;42.152;24.756;2023-01-31T01:47:35;98874.09;;;4.87;81.72
7180;BME280;3631;42.152;24.756;2023-01-31T01:50:08;98871.66;;;4.80;82.55
7180;BME280;3631;42.152;24.756;2023-01-31T01:52:41;98870.81;;;4.79;82.87
7180;BME280;3631;42.152;24.756;2023-01-31T01:55:13;98863.09;;;4.79;82.82
7180;BME280;3631;42.152;24.756;2023-01-31T01:57:44;98858.75;;;4.83;83.39
7180;BME280;3631;42.152;24.756;2023-01-31T02:00:14;98867.34;;;4.82;83.18
7180;BME280;3631;42.152;24.756;2023-01-31T02:02:45;98867.22;;;4.89;83.33
7180;BME280;3631;42.152;24.756;2023-01-31T02:05:16;98859.41;;;4.95;82.86
7180;BME280;3631;42.152;24.756;2023-01-31T02:07:43;98855.91;;;4.98;83.09
7180;BME280;3631;42.152;24.756;2023-01-31T02:10:13;98836.31;;;4.92;83.29
7180;BME280;3631;42.152;24.756;2023-01-31T02:12:41;98839.63;;;4.97;83.78
7180;BME280;3631;42.152;24.756;2023-01-31T02:15:09;98832.53;;;5.11;82.73
7180;BME280;3631;42.152;24.756;2023-01-31T02:17:36;98833.38;;;5.12;82.75
7180;BME280;3631;42.152;24.756;2023-01-31T02:20:26;98831.56;;;5.19;82.33
7180;BME280;3631;42.152;24.756;2023-01-31T02:23:17;98830.78;;;5.14;82.05
7180;BME280;3631;42.152;24.756;2023-01-31T02:29:19;98829.03;;;5.17;82.26
7180;BME280;3631;42.152;24.756;2023-01-31T02:32:19;98835.88;;;5.18;82.47
7180;BME280;3631;42.152;24.756;2023-01-31T02:34:54;98841.72;;;5.26;81.49
7180;BME280;3631;42.152;24.756;2023-01-31T02:37:28;98837.41;;;5.27;81.56
7180;BME280;3631;42.152;24.756;2023-01-31T02:40:07;98835.69;;;5.27;81.33
7180;BME280;3631;42.152;24.756;2023-01-31T02:42:44;98835.81;;;5.20;81.48
7180;BME280;3631;42.152;24.756;2023-01-31T02:45:18;98831.56;;;5.19;81.25
7180;BME280;3631;42.152;24.756;2023-01-31T02:48:00;98833.16;;;5.26;80.81
7180;BME280;3631;42.152;24.756;2023-01-31T02:50:32;98828.75;;;5.31;80.61
7180;BME280;3631;42.152;24.756;2023-01-31T02:53:05;98830.53;;;5.29;80.27
7180;BME280;3631;42.152;24.756;2023-01-31T02:55:37;98838.91;;;5.38;79.48
7180;BME280;3631;42.152;24.756;2023-01-31T02:58:26;98829.31;;;5.46;78.82
7180;BME280;3631;42.152;24.756;2023-01-31T03:00:56;98835.13;;;5.56;78.39
7180;BME280;3631;42.152;24.756;2023-01-31T03:03:27;98830.13;;;5.50;77.61
7180;BME280;3631;42.152;24.756;2023-01-31T03:06:41;98839.56;;;5.50;77.71
7180;BME280;3631;42.152;24.756;2023-01-31T03:09:23;98822.22;;;5.58;77.26
7180;BME280;3631;42.152;24.756;2023-01-31T03:12:08;98807.59;;;5.61;76.23
7180;BME280;3631;42.152;24.756;2023-01-31T03:14:47;98826.91;;;5.80;74.92
7180;BME280;3631;42.152;24.756;2023-01-31T03:17:26;98820.91;;;5.80;75.33
7180;BME280;3631;42.152;24.756;2023-01-31T03:20:03;98830.31;;;5.82;75.79
7180;BME280;3631;42.152;24.756;2023-01-31T03:22:34;98831.25;;;5.78;75.93
7180;BME280;3631;42.152;24.756;2023-01-31T03:25:04;98827.69;;;5.86;75.62
7180;BME280;3631;42.152;24.756;2023-01-31T03:27:33;98810.91;;;5.65;74.25
7180;BME280;3631;42.152;24.756;2023-01-31T03:30:06;98826.03;;;5.81;73.38
7180;BME280;3631;42.152;24.756;2023-01-31T03:32:39;98832.88;;;5.84;73.57
7180;BME280;3631;42.152;24.756;2023-01-31T03:35:11;98824.63;;;5.65;73.80
7180;BME280;3631;42.152;24.756;2023-01-31T03:37:42;98839.94;;;5.74;73.82
7180;BME280;3631;42.152;24.756;2023-01-31T03:40:14;98845.13;;;5.71;73.75
7180;BME280;3631;42.152;24.756;2023-01-31T03:42:46;98840.94;;;5.66;73.64
7180;BME280;3631;42.152;24.756;2023-01-31T03:45:20;98840.19;;;5.61;74.43
7180;BME280;3631;42.152;24.756;2023-01-31T03:47:50;98844.53;;;5.59;74.12
7180;BME280;3631;42.152;24.756;2023-01-31T03:50:24;98846.16;;;5.64;73.46
7180;BME280;3631;42.152;24.756;2023-01-31T03:52:57;98850.47;;;5.62;73.83
7180;BME280;3631;42.152;24.756;2023-01-31T03:55:30;98846.28;;;5.57;73.28
7180;BME280;3631;42.152;24.756;2023-01-31T03:57:59;98826.22;;;5.29;73.43
7180;BME280;3631;42.152;24.756;2023-01-31T04:00:29;98844.13;;;5.34;73.83
7180;BME280;3631;42.152;24.756;2023-01-31T04:03:03;98851.88;;;5.32;72.44
7180;BME280;3631;42.152;24.756;2023-01-31T04:05:34;98857.94;;;5.30;71.83
7180;BME280;3631;42.152;24.756;2023-01-31T04:08:01;98852.84;;;5.27;71.33
7180;BME280;3631;42.152;24.756;2023-01-31T04:10:28;98856.28;;;5.26;71.11
7180;BME280;3631;42.152;24.756;2023-01-31T04:12:54;98855.47;;;5.24;70.52
7180;BME280;3631;42.152;24.756;2023-01-31T04:15:22;98864.75;;;5.31;70.57
7180;BME280;3631;42.152;24.756;2023-01-31T04:17:48;98869.16;;;5.26;70.10
7180;BME280;3631;42.152;24.756;2023-01-31T04:20:15;98873.47;;;5.24;70.19
7180;BME280;3631;42.152;24.756;2023-01-31T04:22:44;98881.28;;;5.19;70.84
7180;BME280;3631;42.152;24.756;2023-01-31T04:25:11;98870.28;;;5.09;70.76
7180;BME280;3631;42.152;24.756;2023-01-31T04:27:38;98883.13;;;5.11;71.23
7180;BME280;3631;42.152;24.756;2023-01-31T04:30:06;98882.44;;;5.01;72.02
7180;BME280;3631;42.152;24.756;2023-01-31T04:32:33;98881.63;;;4.98;72.09
7180;BME280;3631;42.152;24.756;2023-01-31T04:35:00;98868.75;;;4.99;71.96
7180;BME280;3631;42.152;24.756;2023-01-31T04:37:27;98872.28;;;4.95;72.46
7180;BME280;3631;42.152;24.756;2023-01-31T04:39:55;98886.03;;;4.91;73.23
7180;BME280;3631;42.152;24.756;2023-01-31T04:42:22;98894.63;;;4.90;74.11
7180;BME280;3631;42.152;24.756;2023-01-31T04:44:49;98900.66;;;4.88;73.49
7180;BME280;3631;42.152;24.756;2023-01-31T04:47:16;98903.31;;;4.83;73.94
7180;BME280;3631;42.152;24.756;2023-01-31T04:49:43;98903.44;;;4.74;75.08
7180;BME280;3631;42.152;24.756;2023-01-31T04:52:10;98906.09;;;4.69;75.21
7180;BME280;3631;42.152;24.756;2023-01-31T04:54:37;98910.34;;;4.72;75.83
7180;BME280;3631;42.152;24.756;2023-01-31T04:57:07;98913.00;;;4.64;75.56
7180;BME280;3631;42.152;24.756;2023-01-31T04:59:34;98909.69;;;4.58;76.24
7180;BME280;3631;42.152;24.756;2023-01-31T05:02:01;98917.41;;;4.58;76.19
7180;BME280;3631;42.152;24.756;2023-01-31T05:04:28;98915.72;;;4.54;76.83
7180;BME280;3631;42.152;24.756;2023-01-31T05:06:55;98910.59;;;4.54;76.80
7180;BME280;3631;42.152;24.756;2023-01-31T05:09:22;98892.50;;;4.61;76.41
7180;BME280;3631;42.152;24.756;2023-01-31T05:11:49;98908.72;;;4.63;76.21
7180;BME280;3631;42.152;24.756;2023-01-31T05:14:17;98913.88;;;4.63;76.43
7180;BME280;3631;42.152;24.756;2023-01-31T05:16:45;98896.00;;;4.57;76.73
7180;BME280;3631;42.152;24.756;2023-01-31T05:19:13;98907.13;;;4.58;77.19
7180;BME280;3631;42.152;24.756;2023-01-31T05:21:40;98912.38;;;4.50;77.63
7180;BME280;3631;42.152;24.756;2023-01-31T05:24:23;98913.28;;;4.46;79.55
7180;BME280;3631;42.152;24.756;2023-01-31T05:26:50;98917.56;;;4.46;77.90
7180;BME280;3631;42.152;24.756;2023-01-31T05:29:22;98924.41;;;4.47;78.10
7180;BME280;3631;42.152;24.756;2023-01-31T05:31:50;98914.09;;;4.50;77.99
7180;BME280;3631;42.152;24.756;2023-01-31T05:34:17;98909.97;;;4.38;78.04
7180;BME280;3631;42.152;24.756;2023-01-31T05:36:44;98921.09;;;4.38;78.43
7180;BME280;3631;42.152;24.756;2023-01-31T05:39:11;98942.41;;;4.45;78.15
7180;BME280;3631;42.152;24.756;2023-01-31T05:41:38;98933.84;;;4.45;77.98
7180;BME280;3631;42.152;24.756;2023-01-31T05:44:05;98942.50;;;4.39;78.22
7180;BME280;3631;42.152;24.756;2023-01-31T05:46:33;98936.53;;;4.38;78.29
7180;BME280;3631;42.152;24.756;2023-01-31T05:49:00;98913.53;;;4.28;78.06
7180;BME280;3631;42.152;24.756;2023-01-31T05:51:27;98924.53;;;4.39;77.53
7180;BME280;3631;42.152;24.756;2023-01-31T05:53:54;98936.53;;;4.38;78.08
7180;BME280;3631;42.152;24.756;2023-01-31T05:56:21;98930.53;;;4.36;77.82
7180;BME280;3631;42.152;24.756;2023-01-31T05:58:48;98932.28;;;4.34;78.16
7180;BME280;3631;42.152;24.756;2023-01-31T06:01:16;98931.47;;;4.29;78.94
7180;BME280;3631;42.152;24.756;2023-01-31T06:03:45;98958.94;;;4.26;79.03
7180;BME280;3631;42.152;24.756;2023-01-31T06:06:12;98970.94;;;4.25;79.24
7180;BME280;3631;42.152;24.756;2023-01-31T06:08:39;98958.16;;;4.18;79.52
7180;BME280;3631;42.152;24.756;2023-01-31T06:11:07;98975.22;;;4.23;80.34
7180;BME280;3631;42.152;24.756;2023-01-31T06:13:35;98950.59;;;4.07;80.01
7180;BME280;3631;42.152;24.756;2023-01-31T06:16:02;98974.41;;;4.21;80.34
7180;BME280;3631;42.152;24.756;2023-01-31T06:18:30;98971.81;;;4.21;80.62
7180;BME280;3631;42.152;24.756;2023-01-31T06:20:58;98983.81;;;4.21;81.01
7180;BME280;3631;42.152;24.756;2023-01-31T06:23:25;98982.91;;;4.26;80.65
7180;BME280;3631;42.152;24.756;2023-01-31T06:25:52;98977.66;;;4.34;80.81
7180;BME280;3631;42.152;24.756;2023-01-31T06:28:20;98993.03;;;4.38;81.10
7180;BME280;3631;42.152;24.756;2023-01-31T06:30:47;98972.47;;;4.40;80.09
7180;BME280;3631;42.152;24.756;2023-01-31T06:33:14;98972.78;;;4.80;92.23
7180;BME280;3631;42.152;24.756;2023-01-31T06:35:41;98979.81;;;5.23;85.74
7180;BME280;3631;42.152;24.756;2023-01-31T06:38:10;98989.59;;;5.55;81.60
7180;BME280;3631;42.152;24.756;2023-01-31T06:40:38;98985.56;;;5.88;79.50
7180;BME280;3631;42.152;24.756;2023-01-31T06:43:04;98997.22;;;5.61;76.31
7180;BME280;3631;42.152;24.756;2023-01-31T06:45:31;98997.25;;;5.59;76.76
7180;BME280;3631;42.152;24.756;2023-01-31T06:47:58;99003.19;;;5.64;76.65
7180;BME280;3631;42.152;24.756;2023-01-31T06:50:26;98997.91;;;5.70;75.81
7180;BME280;3631;42.152;24.756;2023-01-31T06:52:53;98997.91;;;5.70;76.64
7180;BME280;3631;42.152;24.756;2023-01-31T06:55:21;98992.75;;;5.70;76.17
7180;BME280;3631;42.152;24.756;2023-01-31T06:57:48;99003.88;;;5.74;76.56
7180;BME280;3631;42.152;24.756;2023-01-31T07:00:17;99015.72;;;5.82;76.79
7180;BME280;3631;42.152;24.756;2023-01-31T07:02:44;99016.47;;;5.88;76.46
7180;BME280;3631;42.152;24.756;2023-01-31T07:05:11;99016.47;;;5.91;76.02
7180;BME280;3631;42.152;24.756;2023-01-31T07:07:38;99025.88;;;5.93;75.92
7180;BME280;3631;42.152;24.756;2023-01-31T07:10:06;99014.56;;;6.00;76.25
7180;BME280;3631;42.152;24.756;2023-01-31T07:12:34;99023.94;;;6.04;75.95
7180;BME280;3631;42.152;24.756;2023-01-31T07:15:02;99024.00;;;6.01;76.17
7180;BME280;3631;42.152;24.756;2023-01-31T07:17:29;99031.66;;;6.06;76.59
7180;BME280;3631;42.152;24.756;2023-01-31T07:19:57;99029.13;;;6.01;76.74
7180;BME280;3631;42.152;24.756;2023-01-31T07:22:24;99033.53;;;5.98;76.76
7180;BME280;3631;42.152;24.756;2023-01-31T07:24:51;99049.75;;;6.01;77.30
7180;BME280;3631;42.152;24.756;2023-01-31T07:27:18;99044.56;;;6.03;76.82
7180;BME280;3631;42.152;24.756;2023-01-31T07:29:46;99049.78;;;6.00;76.88
7180;BME280;3631;42.152;24.756;2023-01-31T07:32:13;99049.06;;;5.92;77.64
7180;BME280;3631;42.152;24.756;2023-01-31T07:34:40;99057.56;;;5.97;77.93
7180;BME280;3631;42.152;24.756;2023-01-31T07:37:07;99042.88;;;6.02;77.39
7180;BME280;3631;42.152;24.756;2023-01-31T07:39:34;99043.75;;;6.01;76.67
7180;BME280;3631;42.152;24.756;2023-01-31T07:42:01;99058.38;;;5.99;76.97
7180;BME280;3631;42.152;24.756;2023-01-31T07:44:28;99060.94;;;6.00;76.80
7180;BME280;3631;42.152;24.756;2023-01-31T07:46:56;99062.44;;;6.12;76.79
7180;BME280;3631;42.152;24.756;2023-01-31T07:49:23;99059.81;;;6.15;77.01
7180;BME280;3631;42.152;24.756;2023-01-31T07:51:50;99061.38;;;6.22;76.79
7180;BME280;3631;42.152;24.756;2023-01-31T07:54:17;99067.41;;;6.21;76.28
7180;BME280;3631;42.152;24.756;2023-01-31T07:56:44;99057.81;;;6.31;76.16
7180;BME280;3631;42.152;24.756;2023-01-31T07:59:11;99060.28;;;6.35;75.42
7180;BME280;3631;42.152;24.756;2023-01-31T08:01:38;99058.47;;;6.40;74.91
7180;BME280;3631;42.152;24.756;2023-01-31T08:04:24;99060.34;;;6.32;75.24
7180;BME280;3631;42.152;24.756;2023-01-31T08:06:52;99057.84;;;6.28;75.36
7180;BME280;3631;42.152;24.756;2023-01-31T08:09:20;99062.84;;;6.37;74.79
7180;BME280;3631;42.152;24.756;2023-01-31T08:11:49;99041.59;;;6.24;74.66
7180;BME280;3631;42.152;24.756;2023-01-31T08:14:16;99074.63;;;6.50;74.86
7180;BME280;3631;42.152;24.756;2023-01-31T08:16:48;99074.44;;;6.57;75.35
7180;BME280;3631;42.152;24.756;2023-01-31T08:19:14;99079.69;;;6.54;75.60
7180;BME280;3631;42.152;24.756;2023-01-31T08:21:43;99076.06;;;6.65;75.37
7180;BME280;3631;42.152;24.756;2023-01-31T08:24:10;99077.81;;;6.63;75.48
7180;BME280;3631;42.152;24.756;2023-01-31T08:26:37;99022.41;;;6.40;75.67
7180;BME280;3631;42.152;24.756;2023-01-31T08:29:04;99085.16;;;6.81;75.15
7180;BME280;3631;42.152;24.756;2023-01-31T08:31:31;99081.59;;;6.88;75.17
7180;BME280;3631;42.152;24.756;2023-01-31T08:33:58;99089.97;;;6.99;74.91
7180;BME280;3631;42.152;24.756;2023-01-31T08:36:26;99081.44;;;6.94;74.81
7180;BME280;3631;42.152;24.756;2023-01-31T08:38:55;99077.06;;;6.99;74.42
7180;BME280;3631;42.152;24.756;2023-01-31T08:41:24;99091.75;;;6.96;74.25
7180;BME280;3631;42.152;24.756;2023-01-31T08:43:51;99095.78;;;7.07;74.50
7180;BME280;3631;42.152;24.756;2023-01-31T08:46:20;99078.31;;;7.20;73.60
7180;BME280;3631;42.152;24.756;2023-01-31T08:48:47;99091.06;;;7.26;73.80
7180;BME280;3631;42.152;24.756;2023-01-31T08:51:14;99094.56;;;7.23;72.96
7180;BME280;3631;42.152;24.756;2023-01-31T08:53:42;99097.97;;;7.25;73.12
7180;BME280;3631;42.152;24.756;2023-01-31T08:56:12;99078.94;;;7.29;73.28
7180;BME280;3631;42.152;24.756;2023-01-31T08:58:40;99101.06;;;7.41;72.83
7180;BME280;3631;42.152;24.756;2023-01-31T09:01:09;99101.97;;;7.39;72.59
7180;BME280;3631;42.152;24.756;2023-01-31T09:03:37;99105.97;;;7.52;72.53
7180;BME280;3631;42.152;24.756;2023-01-31T09:06:06;99099.03;;;7.55;72.29
7180;BME280;3631;42.152;24.756;2023-01-31T09:08:33;99095.88;;;7.43;71.44
7180;BME280;3631;42.152;24.756;2023-01-31T09:11:00;99104.63;;;7.36;72.71
7180;BME280;3631;42.152;24.756;2023-01-31T09:13:30;99108.16;;;7.32;73.01
7180;BME280;3631;42.152;24.756;2023-01-31T09:15:58;99099.59;;;7.29;72.64
7180;BME280;3631;42.152;24.756;2023-01-31T09:18:25;99107.03;;;7.43;72.37
7180;BME280;3631;42.152;24.756;2023-01-31T09:20:52;99104.28;;;7.51;72.49
7180;BME280;3631;42.152;24.756;2023-01-31T09:23:19;99097.56;;;7.44;72.20
7180;BME280;3631;42.152;24.756;2023-01-31T09:25:51;99097.06;;;7.65;71.56
7180;BME280;3631;42.152;24.756;2023-01-31T09:28:19;99092.63;;;7.70;71.39
7180;BME280;3631;42.152;24.756;2023-01-31T09:30:47;99098.59;;;7.72;70.04
7180;BME280;3631;42.152;24.756;2023-01-31T09:33:15;99093.38;;;7.75;69.86
7180;BME280;3631;42.152;24.756;2023-01-31T09:35:41;99093.03;;;7.89;68.96
7180;BME280;3631;42.152;24.756;2023-01-31T09:38:08;99098.13;;;7.92;69.50
7180;BME280;3631;42.152;24.756;2023-01-31T09:40:37;99077.56;;;7.87;69.67
7180;BME280;3631;42.152;24.756;2023-01-31T09:43:07;99082.88;;;7.81;70.53
7180;BME280;3631;42.152;24.756;2023-01-31T09:45:39;99083.69;;;7.83;70.11
7180;BME280;3631;42.152;24.756;2023-01-31T09:48:15;99074.19;;;7.85;69.52
7180;BME280;3631;42.152;24.756;2023-01-31T09:50:46;99070.72;;;7.86;70.05
7180;BME280;3631;42.152;24.756;2023-01-31T09:53:17;99063.69;;;7.91;70.85
7180;BME280;3631;42.152;24.756;2023-01-31T09:55:50;99055.84;;;7.94;70.34
7180;BME280;3631;42.152;24.756;2023-01-31T09:58:26;99051.72;;;7.89;70.46
7180;BME280;3631;42.152;24.756;2023-01-31T10:01:05;99053.22;;;7.96;70.24
7180;BME280;3631;42.152;24.756;2023-01-31T10:04:00;99052.34;;;7.97;68.49
7180;BME280;3631;42.152;24.756;2023-01-31T10:06:34;99052.97;;;8.07;67.38
7180;BME280;3631;42.152;24.756;2023-01-31T10:09:06;99043.50;;;8.06;67.52
7180;BME280;3631;42.152;24.756;2023-01-31T10:11:39;99043.53;;;8.04;68.52
7180;BME280;3631;42.152;24.756;2023-01-31T10:14:19;99028.13;;;8.01;67.77
7180;BME280;3631;42.152;24.756;2023-01-31T10:16:56;99034.81;;;8.08;68.11
7180;BME280;3631;42.152;24.756;2023-01-31T10:19:29;99037.91;;;8.22;67.71
7180;BME280;3631;42.152;24.756;2023-01-31T10:22:01;99017.06;;;8.27;67.56
7180;BME280;3631;42.152;24.756;2023-01-31T10:24:34;99023.38;;;8.17;67.25
7180;BME280;3631;42.152;24.756;2023-01-31T10:27:06;99025.75;;;8.24;67.68
7180;BME280;3631;42.152;24.756;2023-01-31T10:29:39;99024.59;;;8.36;67.19
7180;BME280;3631;42.152;24.756;2023-01-31T10:32:14;99026.72;;;8.53;67.20
7180;BME280;3631;42.152;24.756;2023-01-31T10:34:49;99033.31;;;8.64;66.84
7180;BME280;3631;42.152;24.756;2023-01-31T10:37:28;99009.94;;;8.67;67.45
7180;BME280;3631;42.152;24.756;2023-01-31T10:40:02;99010.19;;;8.58;66.63
7180;BME280;3631;42.152;24.756;2023-01-31T10:42:31;99021.06;;;8.69;68.19
7180;BME280;3631;42.152;24.756;2023-01-31T10:45:03;98986.00;;;8.59;66.64
7180;BME280;3631;42.152;24.756;2023-01-31T10:47:40;99008.03;;;8.72;66.46
7180;BME280;3631;42.152;24.756;2023-01-31T10:50:14;99007.34;;;8.67;66.56
7180;BME280;3631;42.152;24.756;2023-01-31T10:52:52;99005.53;;;8.69;66.56
7180;BME280;3631;42.152;24.756;2023-01-31T10:55:38;98999.13;;;8.53;66.94
7180;BME280;3631;42.152;24.756;2023-01-31T10:58:13;98997.63;;;8.46;67.17
7180;BME280;3631;42.152;24.756;2023-01-31T11:00:40;99004.38;;;8.50;66.63
7180;BME280;3631;42.152;24.756;2023-01-31T11:03:09;98994.88;;;8.51;66.51
7180;BME280;3631;42.152;24.756;2023-01-31T11:05:43;98976.19;;;8.70;66.80
7180;BME280;3631;42.152;24.756;2023-01-31T11:08:21;98990.25;;;8.91;66.38
7180;BME280;3631;42.152;24.756;2023-01-31T11:10:52;98994.84;;;9.09;66.06
7180;BME280;3631;42.152;24.756;2023-01-31T11:13:20;98986.84;;;9.17;64.98
7180;BME280;3631;42.152;24.756;2023-01-31T11:15:49;98994.47;;;9.22;65.79
7180;BME280;3631;42.152;24.756;2023-01-31T11:18:25;98994.81;;;9.11;65.68
7180;BME280;3631;42.152;24.756;2023-01-31T11:20:55;98994.50;;;9.20;66.14
7180;BME280;3631;42.152;24.756;2023-01-31T11:23:26;98996.84;;;9.28;66.44
7180;BME280;3631;42.152;24.756;2023-01-31T11:25:54;98992.84;;;9.45;65.73
7180;BME280;3631;42.152;24.756;2023-01-31T11:28:25;98980.38;;;9.57;68.29
7180;BME280;3631;42.152;24.756;2023-01-31T11:30:54;98988.94;;;9.59;64.86
7180;BME280;3631;42.152;24.756;2023-01-31T11:33:38;98992.16;;;9.39;65.29
7180;BME280;3631;42.152;24.756;2023-01-31T11:36:12;98989.03;;;9.29;65.22
7180;BME280;3631;42.152;24.756;2023-01-31T11:38:39;98989.78;;;9.33;65.25
7180;BME280;3631;42.152;24.756;2023-01-31T11:41:25;98985.13;;;9.16;65.07
7180;BME280;3631;42.152;24.756;2023-01-31T11:44:06;98966.97;;;8.91;65.46
7180;BME280;3631;42.152;24.756;2023-01-31T11:46:43;98977.97;;;8.98;66.55
7180;BME280;3631;42.152;24.756;2023-01-31T11:49:13;98977.53;;;8.84;66.66
7180;BME280;3631;42.152;24.756;2023-01-31T11:51:41;98977.72;;;8.78;67.47
7180;BME280;3631;42.152;24.756;2023-01-31T11:54:13;98969.59;;;8.60;67.95
7180;BME280;3631;42.152;24.756;2023-01-31T11:56:43;98972.53;;;8.48;68.48
7180;BME280;3631;42.152;24.756;2023-01-31T11:59:15;98963.94;;;8.48;68.96
7180;BME280;3631;42.152;24.756;2023-01-31T12:01:45;98967.53;;;8.44;69.38
7180;BME280;3631;42.152;24.756;2023-01-31T12:04:15;98972.50;;;8.50;68.77
7180;BME280;3631;42.152;24.756;2023-01-31T12:06:55;98953.44;;;8.23;69.70
7180;BME280;3631;42.152;24.756;2023-01-31T12:09:24;98977.59;;;8.22;69.64
7180;BME280;3631;42.152;24.756;2023-01-31T12:11:53;98987.13;;;8.20;69.17
7180;BME280;3631;42.152;24.756;2023-01-31T12:14:21;98993.13;;;8.20;69.42
7180;BME280;3631;42.152;24.756;2023-01-31T12:16:53;98985.56;;;8.13;69.23
7180;BME280;3631;42.152;24.756;2023-01-31T12:19:33;98998.44;;;8.16;69.15
7180;BME280;3631;42.152;24.756;2023-01-31T12:22:09;99000.19;;;8.14;69.55
7180;BME280;3631;42.152;24.756;2023-01-31T12:24:46;99002.75;;;8.15;68.88
7180;BME280;3631;42.152;24.756;2023-01-31T12:27:22;99003.75;;;8.11;70.34
7180;BME280;3631;42.152;24.756;2023-01-31T12:30:15;99006.41;;;8.08;71.05
7180;BME280;3631;42.152;24.756;2023-01-31T12:32:55;99007.53;;;7.98;72.55
7180;BME280;3631;42.152;24.756;2023-01-31T12:35:55;99007.53;;;7.98;72.21
7180;BME280;3631;42.152;24.756;2023-01-31T12:38:43;99012.75;;;7.96;72.69
7180;BME280;3631;42.152;24.756;2023-01-31T12:41:23;99000.38;;;8.08;73.50
7180;BME280;3631;42.152;24.756;2023-01-31T12:47:32;99012.44;;;8.07;73.69
7180;BME280;3631;42.152;24.756;2023-01-31T12:50:22;99002.88;;;8.11;74.82
7180;BME280;3631;42.152;24.756;2023-01-31T12:53:17;99009.28;;;7.97;74.66
7180;BME280;3631;42.152;24.756;2023-01-31T12:55:55;99019.44;;;8.03;74.96
7180;BME280;3631;42.152;24.756;2023-01-31T12:58:39;99011.94;;;7.94;73.77
7180;BME280;3631;42.152;24.756;2023-01-31T13:01:12;99015.34;;;7.95;74.00
7180;BME280;3631;42.152;24.756;2023-01-31T13:04:04;99009.09;;;8.03;74.68
7180;BME280;3631;42.152;24.756;2023-01-31T13:06:41;99028.34;;;7.92;76.98
7180;BME280;3631;42.152;24.756;2023-01-31T13:09:14;99031.19;;;7.47;79.82
7180;BME280;3631;42.152;24.756;2023-01-31T13:11:47;99021.94;;;7.39;81.90
7180;BME280;3631;42.152;24.756;2023-01-31T13:14:19;99017.13;;;7.23;83.57
7180;BME280;3631;42.152;24.756;2023-01-31T13:16:48;99000.09;;;7.16;84.68
7180;BME280;3631;42.152;24.756;2023-01-31T13:19:21;99013.81;;;7.18;83.87
7180;BME280;3631;42.152;24.756;2023-01-31T13:21:52;98999.72;;;6.96;86.05
7180;BME280;3631;42.152;24.756;2023-01-31T13:24:23;98992.38;;;6.78;86.48
7180;BME280;3631;42.152;24.756;2023-01-31T13:26:57;99010.97;;;6.92;87.07
7180;BME280;3631;42.152;24.756;2023-01-31T13:29:29;99009.91;;;7.01;86.09
7180;BME280;3631;42.152;24.756;2023-01-31T13:32:00;99018.13;;;7.18;86.20
7180;BME280;3631;42.152;24.756;2023-01-31T13:34:30;99017.81;;;7.32;85.26
7180;BME280;3631;42.152;24.756;2023-01-31T13:37:03;99013.31;;;7.40;84.32
7180;BME280;3631;42.152;24.756;2023-01-31T13:39:35;99023.28;;;7.55;83.39
7180;BME280;3631;42.152;24.756;2023-01-31T13:42:06;99018.81;;;7.61;84.18
7180;BME280;3631;42.152;24.756;2023-01-31T13:44:35;99023.81;;;7.68;82.88
7180;BME280;3631;42.152;24.756;2023-01-31T13:47:03;99019.34;;;7.74;81.99
7180;BME280;3631;42.152;24.756;2023-01-31T13:49:35;99021.16;;;7.71;81.49